Time;durP1;ratioP1;P1;durP2;ratioP2;P2;SDS_P1;SDS_P2;PMS_P1;PMS_P2;Temp;Humidity;BMP_temperature;BMP_pressure;BME280_temperature;BME280_humidity;BME280_pressure;Samples;Min_cycle;Max_cycle;Signal;HPM_P1;HPM_P2
2022/06/07 00:01:05;;;;;;;5.45;3.67;;;;;;;19.31;70.75;100584.03;5018976;28;20105;-84
2022/06/07 00:03:30;;;;;;;7.93;3.80;;;;;;;19.37;70.80;100593.38;5019179;28;20038;-84
2022/06/07 00:05:56;;;;;;;9.07;3.75;;;;;;;19.38;71.02;100587.75;5019155;28;20029;-83
2022/06/07 00:08:23;;;;;;;7.45;4.03;;;;;;;19.38;71.14;100590.47;4998252;28;20104;-82
2022/06/07 00:10:49;;;;;;;9.80;4.90;;;;;;;19.42;71.28;100597.28;5014347;28;20033;-82
2022/06/07 00:13:16;;;;;;;6.05;3.80;;;;;;;19.46;71.13;100598.63;4996669;28;20500;-83
2022/06/07 00:15:43;;;;;;;10.82;3.28;;;;;;;19.44;71.37;100589.78;5014506;28;20022;-82
2022/06/07 00:18:10;;;;;;;4.20;3.33;;;;;;;19.60;70.87;100598.84;5014638;28;20100;-82
2022/06/07 00:20:38;;;;;;;8.23;4.03;;;;;;;19.61;70.83;100600.53;5014657;28;20022;-83
2022/06/07 00:23:14;;;;;;;5.80;3.80;;;;;;;19.68;70.77;100596.03;5014325;28;20045;-83
2022/06/07 00:25:41;;;;;;;4.88;3.63;;;;;;;19.72;70.73;100589.19;5014493;28;20017;-82
2022/06/07 00:28:07;;;;;;;7.18;3.40;;;;;;;19.70;70.71;100589.38;5014363;28;20040;-82
2022/06/07 00:30:34;;;;;;;6.22;3.88;;;;;;;19.75;70.50;100602.47;4996425;28;20484;-84
2022/06/07 00:33:00;;;;;;;9.23;3.95;;;;;;;19.83;70.19;100589.59;5014485;28;20129;-82
2022/06/07 00:35:26;;;;;;;6.45;3.42;;;;;;;19.87;70.15;100590.06;4996495;28;20476;-84
2022/06/07 00:37:51;;;;;;;7.13;3.50;;;;;;;19.91;70.13;100585.91;4997332;28;20045;-82
2022/06/07 00:40:17;;;;;;;10.07;3.75;;;;;;;19.90;69.83;100582.38;5012999;28;20480;-83
2022/06/07 00:42:42;;;;;;;12.68;4.47;;;;;;;19.96;69.21;100578.03;5014432;28;20033;-83
2022/06/07 00:45:20;;;;;;;12.48;3.70;;;;;;;19.98;69.02;100584.16;5014241;28;20100;-83
2022/06/07 00:47:47;;;;;;;6.10;3.72;;;;;;;19.91;69.17;100575.84;5014047;28;20401;-82
2022/06/07 00:50:22;;;;;;;7.32;3.58;;;;;;;19.97;69.42;100579.72;5013367;28;20099;-82
2022/06/07 00:52:48;;;;;;;3.80;3.13;;;;;;;19.94;68.83;100569.16;5013379;28;20032;-82
2022/06/07 00:55:14;;;;;;;10.90;3.30;;;;;;;19.94;68.69;100577.34;5013703;28;20101;-82
2022/06/07 00:57:40;;;;;;;5.50;3.45;;;;;;;19.87;69.30;100576.41;4995967;28;20536;-82
2022/06/07 01:00:08;;;;;;;6.38;3.65;;;;;;;19.86;69.36;100563.81;5013288;28;20049;-82
2022/06/07 01:02:34;;;;;;;4.32;3.17;;;;;;;19.85;69.62;100575.75;4996171;28;20037;-82
2022/06/07 01:05:01;;;;;;;80.20;9.82;;;;;;;19.92;69.50;100571.25;5013848;28;20395;-82
2022/06/07 01:12:54;;;;;;;4.43;2.95;;;;;;;19.98;68.33;100567.75;5013449;28;20092;-82
2022/06/07 01:15:20;;;;;;;9.75;3.60;;;;;;;20.05;68.27;100566.00;5013360;28;20443;-82
2022/06/07 01:17:45;;;;;;;4.65;3.03;;;;;;;20.01;68.24;100564.66;5013412;28;20029;-83
2022/06/07 01:20:11;;;;;;;5.15;3.33;;;;;;;20.05;68.38;100571.44;5013254;28;20044;-83
2022/06/07 01:22:37;;;;;;;4.55;3.20;;;;;;;20.06;68.01;100565.78;4995193;28;20072;-83
2022/06/07 01:25:03;;;;;;;4.57;3.15;;;;;;;20.08;67.57;100562.88;5013360;28;20515;-82
2022/06/07 01:27:29;;;;;;;8.52;3.30;;;;;;;20.04;67.78;100584.25;4995703;28;20172;-82
2022/06/07 01:29:54;;;;;;;4.32;2.92;;;;;;;20.04;67.39;100564.28;4995362;28;20032;-82
2022/06/07 01:32:20;;;;;;;8.07;3.05;;;;;;;19.93;67.90;100581.13;5013183;28;20455;-79
2022/06/07 01:34:46;;;;;;;7.32;2.83;;;;;;;19.97;67.71;100579.72;5012198;28;20030;-80
2022/06/07 01:37:14;;;;;;;4.57;2.70;;;;;;;20.00;67.74;100585.66;5012614;28;20030;-80
2022/06/07 01:42:23;;;;;;;8.93;3.25;;;;;;;19.99;68.15;100594.03;5012404;28;20036;-80
2022/06/07 01:44:50;;;;;;;4.00;3.60;;;;;;;20.04;68.11;100588.84;5012024;28;20396;-81
2022/06/07 01:47:20;;;;;;;7.53;3.00;;;;;;;20.05;68.35;100588.69;4994550;28;20045;-80
2022/06/07 01:49:45;;;;;;;5.35;3.08;;;;;;;20.18;67.57;100581.72;5012115;28;20026;-79
2022/06/07 01:52:13;;;;;;;7.97;3.35;;;;;;;20.16;67.44;100595.56;4996584;28;20032;-81
2022/06/07 01:54:38;;;;;;;4.00;3.00;;;;;;;20.18;67.49;100590.78;5016083;28;20025;-80
2022/06/07 01:57:08;;;;;;;5.63;2.80;;;;;;;20.24;67.30;100592.75;5016401;28;20026;-79
2022/06/07 01:59:35;;;;;;;4.85;3.05;;;;;;;20.24;67.31;100583.72;5016016;28;20076;-80
2022/06/07 02:02:01;;;;;;;8.98;2.90;;;;;;;20.16;68.35;100578.31;5015915;28;20480;-81
2022/06/07 02:04:26;;;;;;;8.93;3.60;;;;;;;20.21;67.91;100586.81;5016424;28;20084;-80
2022/06/07 02:06:52;;;;;;;4.82;2.53;;;;;;;20.25;67.12;100585.38;5016440;28;20087;-80
2022/06/07 02:09:18;;;;;;;2.75;2.42;;;;;;;20.28;66.96;100593.22;5016413;28;20486;-80
2022/06/07 02:11:45;;;;;;;4.00;2.78;;;;;;;20.28;67.35;100593.22;5016316;28;20039;-81
2022/06/07 02:14:12;;;;;;;9.88;3.47;;;;;;;20.30;67.25;100600.22;5015995;28;20088;-81
2022/06/07 02:16:38;;;;;;;3.83;3.45;;;;;;;20.32;67.11;100597.28;4999085;28;20030;-82
2022/06/07 02:19:04;;;;;;;5.97;2.90;;;;;;;20.34;67.03;100603.41;5016302;28;20026;-81
2022/06/07 02:21:31;;;;;;;4.65;2.80;;;;;;;20.39;67.01;100601.81;5015869;28;20589;-80
2022/06/07 02:23:57;;;;;;;9.80;3.78;;;;;;;20.36;67.12;100604.94;5015789;28;20030;-80
2022/06/07 02:26:31;;;;;;;4.72;3.17;;;;;;;20.38;67.16;100605.59;5015908;28;20021;-81
2022/06/07 02:29:07;;;;;;;3.58;2.58;;;;;;;20.28;67.64;100609.63;4998289;28;20029;-80
2022/06/07 02:31:36;;;;;;;5.00;3.35;;;;;;;20.29;67.78;100617.63;5015589;28;20018;-81
2022/06/07 02:34:03;;;;;;;22.30;4.95;;;;;;;20.33;67.90;100605.31;4998494;28;20049;-80
2022/06/07 02:36:31;;;;;;;7.47;3.25;;;;;;;20.35;67.98;100605.09;5015428;28;20036;-81
2022/06/07 02:38:58;;;;;;;8.32;2.78;;;;;;;20.31;67.71;100599.16;4998119;28;20544;-81
2022/06/07 02:41:26;;;;;;;8.63;2.85;;;;;;;20.34;67.84;100595.19;5015409;28;20055;-79
2022/06/07 02:43:52;;;;;;;8.18;2.70;;;;;;;20.35;67.91;100584.09;5015558;28;20109;-80
2022/06/07 02:46:17;;;;;;;8.60;3.03;;;;;;;20.34;67.61;100581.53;5015437;28;20022;-80
2022/06/07 02:48:43;;;;;;;3.35;2.70;;;;;;;20.41;67.42;100579.75;5015371;28;20092;-81
2022/06/07 02:51:08;;;;;;;7.22;2.72;;;;;;;20.45;67.51;100589.28;5015232;28;20030;-81
2022/06/07 02:53:34;;;;;;;6.65;2.92;;;;;;;20.42;67.51;100579.59;5015415;28;20022;-81
2022/06/07 02:55:59;;;;;;;7.53;2.83;;;;;;;20.41;67.68;100577.88;4997906;28;20022;-81
2022/06/07 02:58:25;;;;;;;6.60;3.20;;;;;;;20.47;68.07;100592.66;5015570;28;20022;-80
2022/06/07 03:00:51;;;;;;;15.05;3.58;;;;;;;20.47;67.98;100588.06;4997511;28;20032;-80
2022/06/07 03:03:16;;;;;;;7.35;2.67;;;;;;;20.49;67.74;100590.56;4996820;28;20022;-80
2022/06/07 03:05:42;;;;;;;9.70;3.13;;;;;;;20.55;67.76;100590.66;5014858;28;20021;-80
2022/06/07 03:08:07;;;;;;;6.63;2.80;;;;;;;20.54;67.25;100591.72;4997426;28;20022;-80
2022/06/07 03:10:33;;;;;;;21.05;4.18;;;;;;;20.53;67.14;100592.75;5015019;28;20488;-80
2022/06/07 03:12:59;;;;;;;6.70;3.50;;;;;;;20.52;67.27;100574.66;5014655;28;20030;-80
2022/06/07 03:15:24;;;;;;;3.97;2.60;;;;;;;20.62;66.99;100574.38;5014802;28;20095;-80
2022/06/07 03:17:50;;;;;;;6.40;2.88;;;;;;;20.62;66.94;100571.63;5014647;28;20026;-79
2022/06/07 03:20:15;;;;;;;12.63;3.13;;;;;;;20.62;66.91;100574.38;5014282;28;20400;-81
2022/06/07 03:22:41;;;;;;;3.80;2.72;;;;;;;20.59;67.11;100561.94;5014348;28;20112;-79
2022/06/07 03:25:07;;;;;;;6.35;2.75;;;;;;;20.69;66.93;100566.25;5014570;28;20085;-81
2022/06/07 03:27:35;;;;;;;8.52;3.33;;;;;;;20.70;66.61;100563.34;5014431;28;20028;-80
2022/06/07 03:30:02;;;;;;;6.82;3.72;;;;;;;20.76;66.52;100578.13;5014038;28;20018;-81
2022/06/07 03:32:28;;;;;;;3.58;3.28;;;;;;;20.75;66.62;100579.16;5014446;28;20025;-80
2022/06/07 03:34:53;;;;;;;16.80;3.55;;;;;;;20.84;66.27;100578.00;5014734;28;20459;-80
2022/06/07 03:37:19;;;;;;;21.02;3.50;;;;;;;20.85;66.71;100586.03;5014256;28;20029;-81
2022/06/07 03:39:45;;;;;;;8.13;3.30;;;;;;;20.80;66.81;100588.47;5014335;28;20030;-80
2022/06/07 03:42:12;;;;;;;22.50;5.28;;;;;;;20.85;66.69;100593.38;5014652;28;20022;-80
2022/06/07 03:44:38;;;;;;;4.20;2.75;;;;;;;20.93;66.18;100593.25;5014292;28;20447;-80
2022/06/07 03:47:04;;;;;;;8.05;4.03;;;;;;;20.97;66.17;100586.38;5013801;28;20037;-80
2022/06/07 03:49:30;;;;;;;5.72;3.53;;;;;;;20.96;66.11;100584.66;5013889;28;20059;-80
2022/06/07 03:51:55;;;;;;;9.57;3.58;;;;;;;20.92;66.51;100588.81;5013722;28;20401;-81
2022/06/07 03:54:21;;;;;;;7.88;3.20;;;;;;;20.88;66.55;100580.19;5013615;28;20033;-80
2022/06/07 03:56:46;;;;;;;21.90;3.72;;;;;;;20.94;66.55;100579.41;5013800;28;20037;-80
2022/06/07 03:59:12;;;;;;;4.72;3.22;;;;;;;21.01;66.29;100582.19;5013676;28;20025;-82
2022/06/07 04:01:37;;;;;;;9.27;3.22;;;;;;;21.04;65.98;100577.19;5013997;28;20037;-81
2022/06/07 04:04:07;;;;;;;5.85;3.92;;;;;;;20.98;65.99;100574.38;5013921;28;20026;-81
2022/06/07 04:06:38;;;;;;;13.48;5.63;;;;;;;21.00;66.37;100572.31;5013866;28;20373;-81
2022/06/07 04:09:04;;;;;;;9.95;4.20;;;;;;;20.94;66.63;100571.19;4996162;28;20484;-81
2022/06/07 04:11:29;;;;;;;116.70;10.88;;;;;;;20.88;66.69;100566.50;5013166;28;20026;-79
2022/06/07 04:13:56;;;;;;;7.95;3.22;;;;;;;20.92;66.78;100578.72;5013416;28;20029;-80
2022/06/07 04:16:25;;;;;;;7.70;3.97;;;;;;;20.94;66.88;100578.56;5013225;28;20402;-80
2022/06/07 04:18:52;;;;;;;14.15;3.85;;;;;;;20.93;66.46;100568.63;5012999;28;20026;-80
2022/06/07 04:21:18;;;;;;;4.88;3.40;;;;;;;20.85;66.80;100568.78;5013129;28;20133;-80
2022/06/07 04:23:44;;;;;;;9.05;4.07;;;;;;;20.86;66.89;100564.97;5013244;28;20025;-79
2022/06/07 04:26:17;;;;;;;6.00;3.42;;;;;;;20.79;67.26;100550.41;5013350;28;20022;-84
2022/06/07 04:28:43;;;;;;;12.15;3.63;;;;;;;20.92;67.12;100561.47;5012912;28;20026;-78
2022/06/07 04:31:13;;;;;;;25.15;5.22;;;;;;;20.93;67.18;100571.38;5012710;28;20454;-78
2022/06/07 04:33:40;;;;;;;19.48;3.88;;;;;;;20.95;67.04;100559.19;5012616;28;20026;-78
2022/06/07 04:36:15;;;;;;;9.98;4.55;;;;;;;20.96;67.18;100557.31;5013047;28;20465;-80
2022/06/07 04:38:42;;;;;;;8.50;3.22;;;;;;;21.05;67.13;100554.28;4995523;28;20455;-80
2022/06/07 04:41:13;;;;;;;7.40;4.13;;;;;;;21.06;67.56;100563.31;5012482;28;20057;-77
2022/06/07 04:43:39;;;;;;;42.05;6.10;;;;;;;21.12;67.32;100565.31;5012551;28;20030;-79
2022/06/07 04:46:06;;;;;;;9.18;4.45;;;;;;;21.21;66.87;100553.22;4994948;28;20029;-79
2022/06/07 04:48:32;;;;;;;6.32;3.65;;;;;;;21.25;66.64;100565.47;5012362;28;20053;-79
2022/06/07 04:51:08;;;;;;;14.63;4.63;;;;;;;21.23;66.56;100551.13;5012280;28;20519;-79
2022/06/07 04:53:34;;;;;;;5.20;3.70;;;;;;;21.12;65.85;100554.38;5012310;28;20052;-79
2022/06/07 04:56:01;;;;;;;8.18;4.30;;;;;;;21.11;65.78;100560.88;5012175;28;20472;-76
2022/06/07 04:58:27;;;;;;;15.65;3.92;;;;;;;21.04;65.76;100559.91;5012094;28;20048;-76
2022/06/07 05:00:52;;;;;;;5.57;3.22;;;;;;;21.08;65.51;100558.50;5012230;28;20480;-77
2022/06/07 05:03:19;;;;;;;12.35;4.40;;;;;;;21.02;65.06;100560.13;5012107;28;20079;-77
2022/06/07 05:05:44;;;;;;;11.52;3.78;;;;;;;21.00;65.26;100564.09;5011935;28;20021;-76
2022/06/07 05:08:10;;;;;;;15.15;4.40;;;;;;;20.93;65.52;100569.50;5011979;28;20018;-77
2022/06/07 05:10:38;;;;;;;6.50;3.63;;;;;;;20.90;65.15;100571.75;5011895;28;20018;-77
2022/06/07 05:13:04;;;;;;;8.95;3.50;;;;;;;20.90;65.29;100567.16;5011938;28;20029;-78
2022/06/07 05:15:29;;;;;;;12.23;3.85;;;;;;;20.89;64.89;100559.13;4994083;28;20029;-77
2022/06/07 05:17:55;;;;;;;13.63;4.22;;;;;;;20.97;64.78;100572.69;4994114;28;20026;-78
2022/06/07 05:20:20;;;;;;;15.18;4.20;;;;;;;20.97;65.04;100575.44;4994171;28;20025;-78
2022/06/07 05:22:46;;;;;;;19.80;5.57;;;;;;;20.98;65.08;100574.38;5011513;28;20045;-77
2022/06/07 05:25:12;;;;;;;10.32;4.30;;;;;;;20.97;65.13;100575.44;4994134;28;20021;-77
2022/06/07 05:27:42;;;;;;;8.23;4.40;;;;;;;20.97;65.58;100570.81;5011245;28;20025;-77
2022/06/07 05:30:11;;;;;;;14.02;5.60;;;;;;;21.06;65.58;100583.31;5011726;28;20369;-77
2022/06/07 05:32:37;;;;;;;21.52;5.20;;;;;;;21.16;65.59;100583.00;4993912;28;20058;-77
2022/06/07 05:35:05;;;;;;;13.10;5.07;;;;;;;21.26;65.08;100589.03;5011450;28;20556;-77
2022/06/07 05:37:32;;;;;;;21.98;5.00;;;;;;;21.29;64.95;100588.63;4993990;28;20028;-77
2022/06/07 05:39:58;;;;;;;6.03;3.78;;;;;;;21.43;64.53;100581.41;5011443;28;20029;-78
2022/06/07 05:42:23;;;;;;;8.50;4.05;;;;;;;21.54;64.25;100570.78;5011758;28;20030;-77
2022/06/07 05:44:48;;;;;;;16.30;5.25;;;;;;;21.63;63.93;100576.94;5011407;28;20034;-77
2022/06/07 05:47:14;;;;;;;11.38;4.43;;;;;;;21.68;63.69;100589.00;5011363;28;20393;-76
2022/06/07 05:49:40;;;;;;;8.75;4.40;;;;;;;21.79;63.61;100575.81;4993687;28;20030;-75
2022/06/07 05:52:07;;;;;;;7.30;3.83;;;;;;;21.79;63.11;100578.56;5011348;28;20025;-78
2022/06/07 05:54:34;;;;;;;10.35;3.47;;;;;;;21.81;63.00;100577.31;5011369;28;20057;-76
2022/06/07 05:57:00;;;;;;;9.38;3.15;;;;;;;21.76;62.95;100573.47;5011482;28;20026;-76
2022/06/07 05:59:26;;;;;;;8.40;3.60;;;;;;;21.69;63.56;100577.00;5011507;28;20830;-76
2022/06/07 06:01:52;;;;;;;4.13;3.40;;;;;;;21.72;63.66;100583.97;5011332;28;20026;-76
2022/06/07 06:04:19;;;;;;;5.63;3.35;;;;;;;21.66;63.52;100577.41;5011431;28;20534;-76
2022/06/07 06:06:44;;;;;;;11.45;4.43;;;;;;;21.73;63.96;100573.88;5011134;28;20018;-77
2022/06/07 06:11:55;;;;;;;17.85;3.60;;;;;;;21.88;63.60;100567.28;5011741;28;20464;-77
2022/06/07 06:14:21;;;;;;;5.65;3.40;;;;;;;21.91;63.19;100563.31;5011340;28;20105;-77
2022/06/07 06:16:47;;;;;;;22.60;4.90;;;;;;;21.94;63.40;100571.13;5011064;28;20026;-77
2022/06/07 06:19:12;;;;;;;13.52;5.30;;;;;;;21.95;63.42;100565.47;4993595;28;20511;-77
2022/06/07 06:21:41;;;;;;;85.90;15.30;;;;;;;22.05;63.40;100573.28;5011063;28;20058;-77
2022/06/07 06:24:09;;;;;;;24.60;6.22;;;;;;;22.08;63.49;100567.41;5011147;28;20032;-77
2022/06/07 06:26:36;;;;;;;11.02;4.70;;;;;;;22.12;62.60;100568.72;5011179;28;20037;-76
2022/06/07 06:29:02;;;;;;;13.27;3.90;;;;;;;22.08;62.81;100567.41;5011167;28;20026;-76
2022/06/07 06:31:27;;;;;;;15.07;3.85;;;;;;;22.20;63.13;100565.81;5011096;28;20072;-76
2022/06/07 06:33:54;;;;;;;17.30;4.78;;;;;;;22.32;62.59;100558.75;5010990;28;20076;-77
2022/06/07 06:36:23;;;;;;;13.88;4.13;;;;;;;22.35;62.00;100547.38;5011076;28;20026;-77
2022/06/07 06:38:48;;;;;;;6.97;3.60;;;;;;;22.48;61.69;100554.78;5013527;28;20080;-77
2022/06/07 06:41:34;;;;;;;15.95;4.15;;;;;;;22.52;61.09;100564.31;5014958;28;20454;-77
2022/06/07 06:44:01;;;;;;;14.82;4.57;;;;;;;22.50;61.17;100561.78;5014799;28;20101;-77
2022/06/07 06:46:31;;;;;;;7.35;3.30;;;;;;;22.56;61.26;100555.47;5014890;28;20055;-76
2022/06/07 06:48:58;;;;;;;11.32;3.70;;;;;;;22.61;60.64;100550.22;4997387;28;20498;-76
2022/06/07 06:51:25;;;;;;;8.10;3.50;;;;;;;22.63;60.70;100561.81;4996990;28;20406;-77
2022/06/07 06:53:52;;;;;;;9.52;3.28;;;;;;;22.63;60.08;100559.06;5014902;28;20168;-78
2022/06/07 06:56:21;;;;;;;6.43;3.33;;;;;;;22.60;60.21;100564.13;4997046;28;20381;-77
2022/06/07 06:58:48;;;;;;;15.15;2.80;;;;;;;22.66;60.24;100572.41;5014261;28;20104;-77
2022/06/07 07:01:35;;;;;;;5.45;4.30;;;;;;;22.71;60.35;100572.66;5014401;28;20492;-77
2022/06/07 07:04:06;;;;;;;10.13;4.75;;;;;;;22.73;59.97;100565.06;5013801;28;20034;-77
2022/06/07 07:06:31;;;;;;;6.85;2.90;;;;;;;22.73;59.77;100566.97;4996896;28;20104;-77
2022/06/07 07:08:58;;;;;;;11.18;3.95;;;;;;;22.73;59.80;100561.47;5014268;28;20029;-77
2022/06/07 07:11:27;;;;;;;8.55;3.42;;;;;;;22.80;59.59;100570.56;5014384;28;20029;-77
2022/06/07 07:13:56;;;;;;;7.10;3.85;;;;;;;22.86;59.98;100574.41;4996462;28;20026;-79
2022/06/07 07:16:24;;;;;;;17.05;4.18;;;;;;;22.90;59.62;100581.16;4996215;28;20033;-79
2022/06/07 07:18:50;;;;;;;23.98;5.68;;;;;;;22.99;59.20;100577.19;5014127;28;20076;-78
2022/06/07 07:21:22;;;;;;;35.65;6.78;;;;;;;23.00;58.55;100574.22;5013788;28;20045;-76
2022/06/07 07:23:48;;;;;;;12.77;4.50;;;;;;;23.01;59.28;100586.03;5013807;28;20025;-76
2022/06/07 07:26:20;;;;;;;14.93;7.57;;;;;;;23.08;58.66;100592.41;5014059;28;20373;-76
2022/06/07 07:28:46;;;;;;;14.25;4.78;;;;;;;23.16;58.29;100584.81;5013904;28;20032;-76
2022/06/07 07:31:21;;;;;;;12.13;4.40;;;;;;;23.21;58.76;100593.28;5013802;28;20431;-76
2022/06/07 07:33:46;;;;;;;18.10;4.68;;;;;;;23.13;58.78;100589.88;5013734;28;20480;-76
2022/06/07 07:36:12;;;;;;;23.13;6.28;;;;;;;23.10;59.00;100582.06;5014036;28;20029;-76
2022/06/07 07:38:39;;;;;;;8.27;3.78;;;;;;;23.06;59.07;100589.84;5013593;28;20484;-77
2022/06/07 07:41:24;;;;;;;9.55;4.22;;;;;;;23.08;59.88;100586.91;5013747;28;20029;-77
2022/06/07 07:43:51;;;;;;;27.67;4.85;;;;;;;22.93;60.25;100588.97;5014042;28;20120;-77
2022/06/07 07:46:19;;;;;;;12.63;4.10;;;;;;;22.82;60.35;100582.19;5013787;28;20025;-77
2022/06/07 07:48:45;;;;;;;17.40;5.45;;;;;;;22.80;60.61;100577.97;5013817;28;20026;-77
2022/06/07 07:51:17;;;;;;;8.25;4.07;;;;;;;22.85;60.53;100572.69;4995468;28;20084;-78
2022/06/07 07:53:43;;;;;;;6.25;4.03;;;;;;;22.85;61.01;100575.44;4996182;28;20117;-78
2022/06/07 07:56:08;;;;;;;16.10;3.80;;;;;;;22.87;61.03;100573.34;5013587;28;20583;-78
2022/06/07 07:58:34;;;;;;;23.02;5.53;;;;;;;23.03;60.62;100579.28;5013407;28;20071;-77
2022/06/07 08:01:00;;;;;;;8.35;5.47;;;;;;;23.06;61.05;100575.28;5013649;28;20040;-77
2022/06/07 08:03:26;;;;;;;14.98;5.00;;;;;;;23.08;60.93;100586.91;5013475;28;20026;-77
2022/06/07 08:05:52;;;;;;;17.65;4.72;;;;;;;23.02;60.90;100576.78;5013441;28;20474;-78
2022/06/07 08:08:17;;;;;;;25.65;5.03;;;;;;;22.98;61.31;100580.97;5013490;28;20022;-77
2022/06/07 08:10:43;;;;;;;10.77;5.93;;;;;;;23.04;60.95;100575.50;5013474;28;20093;-77
2022/06/07 08:13:08;;;;;;;16.52;4.82;;;;;;;23.01;61.98;100575.06;5016464;28;20026;-76
2022/06/07 08:15:34;;;;;;;40.15;6.80;;;;;;;23.19;62.48;100589.03;5020802;28;20034;-75
2022/06/07 08:18:04;;;;;;;17.63;4.35;;;;;;;23.14;61.52;100583.34;5024860;28;20045;-79
2022/06/07 08:20:35;;;;;;;10.00;4.72;;;;;;;23.05;61.70;100584.59;5018810;28;20030;-76
2022/06/07 08:23:01;;;;;;;28.63;9.65;;;;;;;23.04;61.79;100580.16;5015458;28;20053;-76
2022/06/07 08:25:27;;;;;;;12.90;7.07;;;;;;;22.91;61.30;100574.59;4995140;28;20083;-78
2022/06/07 08:27:52;;;;;;;28.17;4.38;;;;;;;22.77;62.49;100569.09;5012892;28;20022;-78
2022/06/07 08:30:18;;;;;;;8.95;3.90;;;;;;;22.74;62.82;100580.47;5012840;28;20022;-77
2022/06/07 08:32:44;;;;;;;16.80;5.10;;;;;;;22.72;62.88;100577.06;5012701;28;20400;-75
2022/06/07 08:37:58;;;;;;;12.73;4.22;;;;;;;22.86;62.72;100560.69;5012554;28;20120;-76
2022/06/07 08:40:49;;;;;;;15.68;4.20;;;;;;;22.90;62.55;100573.78;4994843;28;20463;-76
2022/06/07 08:43:19;;;;;;;23.02;6.30;;;;;;;22.86;63.24;100569.75;5008254;28;20033;-76
2022/06/07 08:45:47;;;;;;;16.80;8.18;;;;;;;22.74;63.26;100563.19;5012907;28;20029;-76
2022/06/07 08:48:19;;;;;;;11.07;4.55;;;;;;;22.72;63.58;100560.63;5013058;28;20022;-76
2022/06/07 08:51:05;;;;;;;8.82;3.65;;;;;;;22.76;63.68;100567.41;5012533;28;20044;-76
2022/06/07 08:53:40;;;;;;;16.20;4.30;;;;;;;22.77;63.39;100563.63;5012213;28;20096;-76
2022/06/07 08:56:14;;;;;;;14.77;4.15;;;;;;;22.66;63.76;100558.69;5012256;28;20554;-76
2022/06/07 08:58:42;;;;;;;19.77;4.35;;;;;;;22.71;64.09;100569.91;5012103;28;20044;-76
2022/06/07 09:01:20;;;;;;;24.70;5.20;;;;;;;22.70;63.83;100557.25;4993878;28;20037;-77
2022/06/07 09:04:10;;;;;;;9.77;3.10;;;;;;;22.79;64.08;100563.38;5012138;28;20038;-76
2022/06/07 09:06:44;;;;;;;33.13;4.55;;;;;;;22.88;63.93;100564.91;4994557;28;20036;-76
2022/06/07 09:09:11;;;;;;;23.55;3.35;;;;;;;22.98;64.00;100570.00;4994271;28;20034;-77
2022/06/07 09:14:59;;;;;;;10.23;2.90;;;;;;;23.25;61.86;100558.03;5012081;28;20041;-76
2022/06/07 09:17:29;;;;;;;15.80;2.78;;;;;;;23.24;61.53;100559.06;4993932;28;20033;-76
2022/06/07 09:19:55;;;;;;;33.40;7.47;;;;;;;23.33;62.48;100554.25;5011782;28;20030;-76
2022/06/07 09:22:37;;;;;;;25.25;4.60;;;;;;;23.56;62.63;100558.31;5011587;28;20056;-77
2022/06/07 09:25:14;;;;;;;26.88;5.30;;;;;;;23.67;61.49;100565.91;5011685;28;20032;-76
2022/06/07 09:27:41;;;;;;;13.38;4.00;;;;;;;23.88;60.11;100561.25;5011472;28;20072;-76
2022/06/07 09:30:22;;;;;;;5.18;2.72;;;;;;;24.12;59.36;100563.38;5011609;28;20030;-76
2022/06/07 09:32:51;;;;;;;8.63;2.88;;;;;;;24.17;59.22;100549.81;5011515;28;20030;-77
2022/06/07 09:35:54;;;;;;;15.88;3.58;;;;;;;24.16;59.54;100559.13;5011215;28;20507;-75
2022/06/07 09:38:31;;;;;;;21.50;3.13;;;;;;;24.19;58.53;100554.03;4913059;29;20046;-76
2022/06/07 09:41:05;;;;;;;8.82;2.88;;;;;;;24.20;59.31;100549.38;5000212;28;20046;-76
2022/06/07 09:43:43;;;;;;;31.77;4.45;;;;;;;24.16;59.64;100550.88;5011409;28;20105;-76
2022/06/07 09:46:11;;;;;;;23.35;3.92;;;;;;;24.10;60.19;100544.31;5011491;28;20059;-76
2022/06/07 09:48:38;;;;;;;10.35;2.85;;;;;;;24.21;59.83;100540.94;5011512;28;20026;-76
2022/06/07 09:51:06;;;;;;;5.78;3.08;;;;;;;24.43;59.08;100540.66;5011295;28;20022;-75
2022/06/07 09:53:37;;;;;;;26.27;4.85;;;;;;;24.26;58.54;100543.03;5011270;28;20087;-77
2022/06/07 09:56:31;;;;;;;29.95;4.63;;;;;;;24.31;58.98;100544.06;5011336;28;20034;-76
2022/06/07 09:59:18;;;;;;;7.43;3.60;;;;;;;24.52;57.96;100540.22;5011352;28;20040;-76
2022/06/07 10:01:54;;;;;;;13.75;3.42;;;;;;;24.50;57.73;100536.81;5011218;28;20025;-76
2022/06/07 10:04:49;;;;;;;13.57;2.67;;;;;;;24.68;57.27;100536.09;4993625;28;20504;-76
2022/06/07 10:07:35;;;;;;;14.20;3.55;;;;;;;24.85;57.28;100532.69;5010958;28;20116;-76
2022/06/07 10:10:16;;;;;;;10.18;3.63;;;;;;;24.88;55.82;100523.13;5011196;28;20057;-76
2022/06/07 10:12:44;;;;;;;20.25;5.55;;;;;;;24.86;56.34;100530.78;5011789;28;20030;-76
2022/06/07 10:15:15;;;;;;;5.95;2.70;;;;;;;24.75;55.33;100526.75;5015074;28;20113;-76
2022/06/07 10:17:49;;;;;;;12.52;3.88;;;;;;;24.87;55.83;100519.53;5014992;28;20041;-76
2022/06/07 10:20:39;;;;;;;39.85;5.85;;;;;;;25.06;56.06;100525.13;5015084;28;20030;-76
2022/06/07 10:23:20;;;;;;;36.05;11.25;;;;;;;25.05;56.15;100520.69;5014654;28;20569;-76
2022/06/07 10:26:00;;;;;;;31.52;5.55;;;;;;;25.01;56.15;100511.22;5014819;28;20029;-77
2022/06/07 10:28:44;;;;;;;6.97;2.85;;;;;;;24.99;56.02;100499.56;5014864;28;20026;-76
2022/06/07 10:31:37;;;;;;;10.13;3.20;;;;;;;24.90;56.50;100497.09;5014803;28;20493;-77
2022/06/07 10:34:10;;;;;;;17.52;3.63;;;;;;;24.73;56.67;100506.91;4997123;28;20030;-75
2022/06/07 10:36:57;;;;;;;9.13;3.88;;;;;;;24.57;56.83;100501.88;5015301;28;20103;-77
2022/06/07 10:39:47;;;;;;;7.15;2.55;;;;;;;24.62;57.34;100492.97;5014841;28;20514;-76
2022/06/07 10:42:33;;;;;;;11.30;4.32;;;;;;;24.66;56.82;100496.97;5014724;28;20473;-77
2022/06/07 10:45:15;;;;;;;21.65;9.05;;;;;;;24.66;56.07;100489.56;5014639;28;20034;-77
2022/06/07 10:47:49;;;;;;;14.13;4.97;;;;;;;24.54;55.96;100484.97;5015162;28;20101;-78
2022/06/07 10:50:53;;;;;;;13.02;4.20;;;;;;;24.47;56.33;100484.16;5015210;28;20109;-78
2022/06/07 10:53:22;;;;;;;17.02;4.30;;;;;;;24.60;56.31;100479.44;4964505;28;20073;-75
2022/06/07 10:55:53;;;;;;;26.95;4.95;;;;;;;24.54;56.88;100480.31;5014551;28;20034;-77
2022/06/07 10:58:38;;;;;;;82.03;14.95;;;;;;;24.70;56.96;100474.31;5014443;28;20026;-76
2022/06/07 11:01:14;;;;;;;35.40;5.30;;;;;;;24.77;57.43;100474.25;5014220;28;20109;-77
2022/06/07 11:04:06;;;;;;;24.73;7.03;;;;;;;24.75;57.14;100484.66;5014093;28;20485;-76
2022/06/07 11:09:47;;;;;;;20.35;4.45;;;;;;;24.50;58.10;100479.06;5014702;28;20045;-76
2022/06/07 11:12:19;;;;;;;7.80;2.95;;;;;;;24.49;57.45;100458.16;5014423;28;20026;-76
2022/06/07 11:15:02;;;;;;;21.40;6.22;;;;;;;24.54;57.42;100469.31;5014444;28;20116;-77
2022/06/07 11:17:33;;;;;;;26.17;7.20;;;;;;;24.56;58.37;100467.19;5014122;28;20030;-77
2022/06/07 11:20:12;;;;;;;27.23;5.03;;;;;;;24.69;58.21;100467.13;5014167;28;20108;-77
2022/06/07 11:23:08;;;;;;;28.42;6.78;;;;;;;24.74;57.14;100456.28;5013895;28;20045;-78
2022/06/07 11:25:43;;;;;;;6.88;4.22;;;;;;;24.90;56.97;100450.31;5012472;28;20022;-77
2022/06/07 11:28:42;;;;;;;13.00;3.50;;;;;;;25.23;56.58;100446.44;5014155;28;20069;-77
2022/06/07 11:31:35;;;;;;;22.98;4.15;;;;;;;25.42;55.60;100443.53;5013888;28;20053;-76
2022/06/07 11:34:12;;;;;;;14.13;3.47;;;;;;;25.67;55.24;100449.03;5014035;28;20044;-76
2022/06/07 11:36:41;;;;;;;16.50;3.30;;;;;;;25.91;54.17;100428.84;4996125;28;20033;-75
2022/06/07 11:39:52;;;;;;;7.47;2.67;;;;;;;26.13;53.92;100434.75;5013586;28;20101;-76
2022/06/07 11:42:17;;;;;;;8.45;2.72;;;;;;;26.04;52.90;100436.13;4927159;28;20059;-76
2022/06/07 11:44:43;;;;;;;11.98;3.40;;;;;;;25.86;53.28;100436.97;4996122;28;20489;-76
2022/06/07 11:47:11;;;;;;;8.40;3.42;;;;;;;25.70;53.96;100432.06;4996068;28;20113;-77
2022/06/07 11:49:41;;;;;;;28.00;4.85;;;;;;;25.54;56.52;100440.91;5013847;28;20037;-76
2022/06/07 11:52:13;;;;;;;17.98;4.82;;;;;;;25.27;59.09;100428.41;5013565;28;20084;-76
2022/06/07 11:54:53;;;;;;;10.33;4.47;;;;;;;25.12;61.88;100427.91;5013511;28;20057;-76